createdAt,value
2022-12-23T00:02:07.527Z,188.70
2022-12-23T00:04:35.560Z,189.95
2022-12-23T00:07:03.935Z,199.27
2022-12-23T00:09:31.689Z,192.45
2022-12-23T00:16:24.992Z,186.97
2022-12-23T00:18:53.778Z,181.20
2022-12-23T00:21:21.939Z,179.77
2022-12-23T00:23:51.503Z,190.27
2022-12-23T00:26:23.014Z,189.88
2022-12-23T00:33:45.495Z,129.45
2022-12-23T00:36:38.698Z,127.65
2022-12-23T00:39:26.774Z,131.48
2022-12-23T00:46:51.406Z,142.30
2022-12-23T00:53:21.361Z,128.98
2022-12-23T00:56:16.502Z,141.20
2022-12-23T00:58:44.270Z,143.35
2022-12-23T01:09:14.036Z,148.85
2022-12-23T01:11:47.191Z,159.85
2022-12-23T01:14:15.218Z,152.75
2022-12-23T01:16:43.350Z,155.87
2022-12-23T01:19:12.031Z,163.05
2022-12-23T01:22:32.857Z,158.48
2022-12-23T01:25:00.831Z,138.57
2022-12-23T01:32:24.886Z,141.63
2022-12-23T01:34:55.101Z,162.90
2022-12-23T01:37:22.758Z,151.80
2022-12-23T01:49:23.424Z,127.60
2022-12-23T01:51:52.224Z,129.57
2022-12-23T01:54:19.865Z,128.85
2022-12-23T01:56:50.299Z,136.75
2022-12-23T02:06:52.832Z,163.18
2022-12-23T02:13:35.234Z,128.68
2022-12-23T02:16:17.752Z,133.02
2022-12-23T02:18:51.455Z,128.70
2022-12-23T02:30:56.190Z,143.65
2022-12-23T02:33:40.960Z,137.43
2022-12-23T02:44:06.334Z,132.02
2022-12-23T02:46:46.708Z,128.38
2022-12-23T02:53:54.818Z,109.17
2022-12-23T03:01:15.633Z,121.68
2022-12-23T03:03:46.266Z,127.32
2022-12-23T03:06:39.849Z,112.80
2022-12-23T03:09:08.700Z,120.00
2022-12-23T03:12:15.061Z,124.28
2022-12-23T03:20:16.564Z,114.22
2022-12-23T03:23:55.399Z,123.07
2022-12-23T03:30:34.685Z,123.60
2022-12-23T03:37:55.082Z,123.70
2022-12-23T03:50:19.693Z,102.65
2022-12-23T03:52:53.725Z,106.50
2022-12-23T03:59:36.789Z,102.32
2022-12-23T04:07:00.908Z,94.80
2022-12-23T04:09:29.868Z,105.45
2022-12-23T04:11:58.735Z,112.35
2022-12-23T04:18:59.021Z,101.50
2022-12-23T04:21:27.086Z,99.47
2022-12-23T04:28:34.386Z,99.75
2022-12-23T04:31:02.303Z,107.63
2022-12-23T04:33:31.091Z,95.97
2022-12-23T04:36:01.108Z,111.47
2022-12-23T04:38:29.113Z,109.55
2022-12-23T04:40:56.928Z,99.20
2022-12-23T04:43:24.973Z,101.40
2022-12-23T04:45:53.228Z,103.83
2022-12-23T04:48:21.380Z,104.10
2022-12-23T04:54:57.315Z,99.13
2022-12-23T04:57:49.777Z,104.40
2022-12-23T05:00:18.437Z,96.67
2022-12-23T05:02:46.397Z,97.40
2022-12-23T05:05:16.111Z,105.32
2022-12-23T05:07:43.870Z,98.72
2022-12-23T05:10:12.194Z,99.00
2022-12-23T05:12:39.936Z,100.57
2022-12-23T05:15:08.959Z,108.88
2022-12-23T05:17:36.819Z,149.50
2022-12-23T05:20:05.361Z,153.38
2022-12-23T05:22:33.360Z,146.50
2022-12-23T05:25:01.673Z,131.77
2022-12-23T05:28:00.323Z,139.05
2022-12-23T05:30:28.669Z,129.02
2022-12-23T05:34:14.802Z,131.18
2022-12-23T05:36:43.020Z,133.95
2022-12-23T05:40:02.815Z,219.33
2022-12-23T05:42:31.024Z,268.23
2022-12-23T05:44:58.762Z,488.25
2022-12-23T05:47:27.111Z,490.15
2022-12-23T05:49:54.897Z,415.23
2022-12-23T05:52:23.244Z,404.40
2022-12-23T05:54:53.272Z,316.98
2022-12-23T05:57:21.717Z,285.10
2022-12-23T05:59:49.419Z,266.08
2022-12-23T06:02:17.846Z,221.70
2022-12-23T06:04:45.784Z,201.47
2022-12-23T06:07:15.973Z,191.90
2022-12-23T06:09:43.840Z,205.90
2022-12-23T06:12:12.219Z,182.57
2022-12-23T06:15:55.548Z,153.63
2022-12-23T06:19:14.709Z,148.53
2022-12-23T06:26:17.505Z,130.88
2022-12-23T06:48:32.273Z,139.23
2022-12-23T06:51:02.198Z,146.45
2022-12-23T06:53:36.250Z,156.18
2022-12-23T06:56:30.349Z,149.03
2022-12-23T06:58:58.431Z,186.65
2022-12-23T07:01:26.862Z,220.32
2022-12-23T07:03:59.073Z,246.10
2022-12-23T07:06:27.426Z,268.45
2022-12-23T07:08:56.440Z,417.17
2022-12-23T07:12:16.853Z,367.77
2022-12-23T07:14:46.691Z,285.77
2022-12-23T07:17:27.361Z,418.25
2022-12-23T07:19:57.285Z,402.40
2022-12-23T07:22:26.101Z,305.57
2022-12-23T07:24:54.434Z,251.20
2022-12-23T07:27:25.621Z,232.48
2022-12-23T07:29:55.271Z,198.48
2022-12-23T07:32:25.261Z,215.13
2022-12-23T07:34:53.584Z,205.80
2022-12-23T07:37:27.993Z,170.88
2022-12-23T07:40:06.495Z,185.18
2022-12-23T07:42:45.663Z,196.98
2022-12-23T07:46:08.994Z,217.43
2022-12-23T07:48:49.770Z,186.33
2022-12-23T07:51:18.423Z,201.90
2022-12-23T07:53:51.619Z,195.35
2022-12-23T07:56:20.427Z,177.95
2022-12-23T07:59:20.302Z,142.00
2022-12-23T08:01:51.177Z,130.23
2022-12-23T08:04:21.118Z,119.80
2022-12-23T08:06:49.241Z,117.10
2022-12-23T08:09:22.529Z,121.70
2022-12-23T08:11:54.341Z,111.88
2022-12-23T08:14:24.569Z,117.50
2022-12-23T08:17:05.605Z,112.82
2022-12-23T08:19:43.250Z,112.30
2022-12-23T08:22:11.350Z,113.50
2022-12-23T08:24:40.588Z,121.88
2022-12-23T08:27:08.777Z,106.53
2022-12-23T08:29:36.896Z,120.63
2022-12-23T08:32:04.998Z,104.75
2022-12-23T08:34:33.575Z,117.10
2022-12-23T08:37:01.687Z,116.63
2022-12-23T08:39:30.102Z,114.70
2022-12-23T08:41:58.340Z,121.57
2022-12-23T08:44:28.321Z,123.72
2022-12-23T08:46:56.430Z,122.70
2022-12-23T08:49:24.687Z,116.63
2022-12-23T08:51:52.654Z,114.53
2022-12-23T08:54:21.197Z,116.55
2022-12-23T08:56:49.526Z,115.57
2022-12-23T08:59:20.199Z,110.85
2022-12-23T09:01:49.150Z,103.65
2022-12-23T09:04:17.626Z,90.60
2022-12-23T09:06:46.027Z,93.55
2022-12-23T09:09:16.294Z,108.40
2022-12-23T09:11:44.894Z,106.00
2022-12-23T09:14:13.945Z,99.90
2022-12-23T09:16:42.089Z,100.97
2022-12-23T09:19:10.524Z,102.65
2022-12-23T09:21:38.478Z,100.38
2022-12-23T09:24:10.373Z,103.88
2022-12-23T09:26:39.047Z,97.85
2022-12-23T09:29:07.136Z,94.77
2022-12-23T09:31:37.725Z,128.73
2022-12-23T09:34:06.928Z,99.43
2022-12-23T09:36:34.982Z,98.45
2022-12-23T09:39:04.282Z,93.13
2022-12-23T09:42:08.167Z,94.33
2022-12-23T09:44:39.480Z,117.43
2022-12-23T09:47:13.646Z,109.97
2022-12-23T09:49:49.249Z,104.28
2022-12-23T09:52:24.649Z,107.15
2022-12-23T09:54:55.571Z,111.83
2022-12-23T09:58:01.477Z,106.05
2022-12-23T10:00:43.358Z,103.15
2022-12-23T10:03:24.413Z,100.40
2022-12-23T10:06:21.312Z,96.80
2022-12-23T10:08:53.717Z,89.20
2022-12-23T10:11:26.509Z,94.07
2022-12-23T10:14:03.440Z,106.82
2022-12-23T10:16:43.863Z,95.60
2022-12-23T10:19:29.407Z,90.57
2022-12-23T10:22:10.616Z,107.43
2022-12-23T10:24:46.768Z,93.63
2022-12-23T10:27:27.788Z,85.78
2022-12-23T10:30:06.086Z,91.40
2022-12-23T10:33:30.189Z,86.32
2022-12-23T10:36:23.872Z,99.77
2022-12-23T10:39:05.660Z,88.30
2022-12-23T10:41:49.552Z,146.25
2022-12-23T10:44:23.768Z,187.00
2022-12-23T10:47:43.755Z,139.18
2022-12-23T10:50:50.583Z,89.63
2022-12-23T10:53:30.773Z,87.93
2022-12-23T10:56:00.262Z,85.80
2022-12-23T10:58:28.172Z,94.40
2022-12-23T11:01:00.483Z,85.63
2022-12-23T11:03:38.712Z,83.90
2022-12-23T11:06:09.709Z,84.82
2022-12-23T11:08:39.647Z,82.13
2022-12-23T11:11:08.055Z,84.35
2022-12-23T11:13:42.154Z,87.25
2022-12-23T11:16:25.808Z,81.83
2022-12-23T11:19:03.342Z,80.10
2022-12-23T11:21:33.456Z,75.75
2022-12-23T11:24:19.916Z,81.57
2022-12-23T11:27:03.695Z,77.18
2022-12-23T11:29:40.648Z,81.10
2022-12-23T11:32:26.635Z,83.95
2022-12-23T11:34:57.355Z,85.00
2022-12-23T11:37:41.291Z,73.55
2022-12-23T11:40:29.858Z,83.70
2022-12-23T11:43:05.122Z,74.33
2022-12-23T11:45:37.090Z,76.05
2022-12-23T11:48:07.336Z,83.88
2022-12-23T11:50:39.271Z,79.57
2022-12-23T11:53:15.317Z,91.38
2022-12-23T11:56:00.010Z,84.43
2022-12-23T11:58:30.919Z,89.60
2022-12-23T12:01:01.777Z,90.35
2022-12-23T12:03:38.967Z,76.22
2022-12-23T12:06:08.349Z,78.63
2022-12-23T12:08:38.607Z,78.47
2022-12-23T12:11:15.558Z,80.95
2022-12-23T12:13:48.326Z,83.65
2022-12-23T12:16:32.650Z,78.95
2022-12-23T12:19:08.014Z,77.82
2022-12-23T12:21:38.657Z,85.47
2022-12-23T12:24:24.127Z,88.63
2022-12-23T12:26:54.849Z,88.80
2022-12-23T12:29:30.017Z,92.45
2022-12-23T12:32:00.819Z,93.95
2022-12-23T12:34:43.198Z,106.43
2022-12-23T12:37:25.487Z,91.32
2022-12-23T12:40:17.208Z,99.70
2022-12-23T12:42:53.573Z,219.85
2022-12-23T12:45:25.689Z,114.90
2022-12-23T12:48:31.077Z,139.30
2022-12-23T12:51:23.301Z,88.18
2022-12-23T12:54:06.346Z,79.85
2022-12-23T12:56:41.915Z,86.78
2022-12-23T12:59:17.778Z,86.82
2022-12-23T13:01:53.635Z,92.17
2022-12-23T13:04:47.214Z,95.45
2022-12-23T13:07:27.590Z,90.85
2022-12-23T13:10:08.058Z,92.35
2022-12-23T13:12:54.979Z,97.80
2022-12-23T13:15:38.465Z,99.13
2022-12-23T13:18:15.935Z,108.10
2022-12-23T13:20:57.303Z,106.35
2022-12-23T13:23:59.249Z,101.97
2022-12-23T13:26:31.971Z,96.05
2022-12-23T13:29:41.614Z,120.77
2022-12-23T13:32:35.773Z,127.95
2022-12-23T13:35:40.984Z,117.35
2022-12-23T13:38:34.067Z,98.80
2022-12-23T13:41:12.256Z,103.07
2022-12-23T13:44:07.857Z,107.43
2022-12-23T13:46:53.371Z,143.02
2022-12-23T13:49:25.545Z,141.73
2022-12-23T13:52:54.348Z,141.77
2022-12-23T13:55:45.075Z,127.28
2022-12-23T13:58:22.680Z,143.13
2022-12-23T14:01:32.982Z,172.07
2022-12-23T14:04:36.460Z,169.35
2022-12-23T14:07:21.152Z,166.23
2022-12-23T14:10:16.909Z,170.15
2022-12-23T14:12:45.589Z,221.77
2022-12-23T14:15:37.382Z,248.75
2022-12-23T14:18:11.550Z,197.77
2022-12-23T14:20:57.985Z,153.00
2022-12-23T14:23:40.801Z,150.73
2022-12-23T14:26:11.997Z,141.00
2022-12-23T14:29:03.015Z,151.75
2022-12-23T14:31:39.305Z,153.77
2022-12-23T14:34:23.701Z,159.27
2022-12-23T14:37:29.038Z,157.80
2022-12-23T14:39:58.968Z,145.93
2022-12-23T14:42:47.757Z,149.35
2022-12-23T14:45:42.397Z,143.90
2022-12-23T14:48:44.927Z,137.20
2022-12-23T14:51:15.857Z,133.32
2022-12-23T14:53:54.067Z,134.03
2022-12-23T14:56:26.914Z,140.65
2022-12-23T14:59:04.556Z,142.80
2022-12-23T15:01:58.940Z,120.88
2022-12-23T15:04:35.915Z,111.50
2022-12-23T15:07:12.637Z,113.87
2022-12-23T15:09:58.658Z,122.90
2022-12-23T15:12:36.935Z,122.88
2022-12-23T15:15:23.744Z,144.68
2022-12-23T15:18:03.812Z,152.38
2022-12-23T15:20:32.392Z,150.53
2022-12-23T15:23:02.254Z,149.40
2022-12-23T15:25:33.392Z,161.98
2022-12-23T15:28:03.893Z,146.18
2022-12-23T15:30:38.077Z,160.93
2022-12-23T15:33:34.950Z,145.97
2022-12-23T15:35:58.478Z,166.23
2022-12-23T15:38:30.299Z,151.88
2022-12-23T15:41:02.328Z,130.13
2022-12-23T15:43:31.678Z,138.68
2022-12-23T15:46:26.914Z,139.47
2022-12-23T15:48:59.068Z,134.93
2022-12-23T15:54:29.652Z,140.27
2022-12-23T15:57:00.755Z,142.52
2022-12-23T15:59:40.175Z,134.20
2022-12-23T16:05:45.449Z,133.27
2022-12-23T16:08:17.788Z,145.60
2022-12-23T16:11:16.137Z,133.00
2022-12-23T16:14:02.749Z,136.00
2022-12-23T16:16:43.266Z,148.65
2022-12-23T16:19:42.735Z,153.82
2022-12-23T16:22:25.592Z,156.13
2022-12-23T16:25:01.783Z,158.50
2022-12-23T16:27:43.332Z,150.53
2022-12-23T16:30:19.416Z,155.00
2022-12-23T16:32:51.388Z,154.13
2022-12-23T16:35:33.501Z,171.98
2022-12-23T16:38:14.792Z,172.52
2022-12-23T16:40:45.032Z,209.77
2022-12-23T16:43:16.306Z,198.73
2022-12-23T16:45:47.418Z,157.45
2022-12-23T16:48:24.363Z,154.32
2022-12-23T16:50:53.895Z,153.00
2022-12-23T16:53:22.176Z,152.67
2022-12-23T16:55:58.478Z,175.85
2022-12-23T16:58:29.794Z,174.95
2022-12-23T17:00:58.751Z,173.77
2022-12-23T17:03:27.037Z,179.98
2022-12-23T17:05:55.584Z,174.37
2022-12-23T17:08:23.553Z,164.65
2022-12-23T17:10:52.276Z,178.27
2022-12-23T17:13:20.503Z,174.43
2022-12-23T17:15:48.783Z,156.93
2022-12-23T17:18:19.154Z,164.73
2022-12-23T17:20:49.944Z,152.55
2022-12-23T17:23:24.224Z,161.02
2022-12-23T17:25:52.907Z,153.20
2022-12-23T17:28:21.090Z,137.13
2022-12-23T17:30:55.531Z,139.30
2022-12-23T17:33:29.939Z,152.85
2022-12-23T17:35:59.563Z,151.95
2022-12-23T17:38:30.818Z,155.30
2022-12-23T17:40:59.280Z,161.07
2022-12-23T17:43:28.167Z,164.47
2022-12-23T17:45:59.688Z,166.27
2022-12-23T17:48:31.594Z,153.65
2022-12-23T17:51:03.409Z,132.60
2022-12-23T17:53:31.707Z,132.93
2022-12-23T17:56:00.327Z,124.63
2022-12-23T17:58:28.493Z,123.97
2022-12-23T18:00:56.967Z,136.52
2022-12-23T18:03:25.286Z,126.07
2022-12-23T18:06:01.199Z,135.68
2022-12-23T18:08:31.636Z,133.93
2022-12-23T18:11:00.681Z,118.55
2022-12-23T18:13:29.588Z,113.60
2022-12-23T18:15:58.203Z,116.88
2022-12-23T18:18:33.328Z,111.10
2022-12-23T18:21:20.216Z,112.80
2022-12-23T18:23:48.885Z,123.32
2022-12-23T18:26:17.325Z,149.63
2022-12-23T18:28:45.747Z,149.80
2022-12-23T18:31:27.931Z,136.45
2022-12-23T18:33:56.409Z,124.00
2022-12-23T18:36:30.940Z,117.93
2022-12-23T18:38:59.121Z,130.13
2022-12-23T18:41:27.987Z,126.40
2022-12-23T18:43:56.284Z,125.75
2022-12-23T18:46:24.811Z,124.37
2022-12-23T18:48:52.953Z,109.60
2022-12-23T18:51:22.641Z,108.50
2022-12-23T18:53:51.586Z,120.68
2022-12-23T18:56:24.885Z,94.78
2022-12-23T18:58:53.234Z,100.10
2022-12-23T19:01:21.485Z,99.97
2022-12-23T19:03:49.366Z,100.70
2022-12-23T19:06:17.791Z,93.70
2022-12-23T19:08:45.648Z,99.35
2022-12-23T19:11:17.104Z,102.33
2022-12-23T19:13:46.210Z,103.35
2022-12-23T19:16:57.892Z,102.18
2022-12-23T19:26:07.648Z,103.93
2022-12-23T19:28:49.075Z,104.38
2022-12-23T19:36:00.866Z,108.05
2022-12-23T19:38:48.113Z,130.43
2022-12-23T19:41:16.511Z,132.17
2022-12-23T19:43:46.330Z,157.90
2022-12-23T19:46:16.034Z,203.25
2022-12-23T19:48:49.567Z,253.02
2022-12-23T19:51:17.964Z,222.48
2022-12-23T19:53:46.655Z,227.33
2022-12-23T19:56:21.486Z,218.35
2022-12-23T19:58:50.604Z,181.38
2022-12-23T20:01:21.282Z,184.25
2022-12-23T20:03:50.326Z,178.20
2022-12-23T20:06:19.979Z,198.33
2022-12-23T20:08:50.913Z,195.65
2022-12-23T20:11:26.632Z,206.52
2022-12-23T20:13:55.828Z,196.32
2022-12-23T20:16:24.447Z,213.10
2022-12-23T20:18:52.980Z,180.93
2022-12-23T20:21:22.030Z,170.25
2022-12-23T20:23:50.573Z,168.82
2022-12-23T20:26:20.225Z,165.10
2022-12-23T20:28:48.438Z,155.25
2022-12-23T20:31:22.958Z,161.00
2022-12-23T20:33:52.556Z,113.30
2022-12-23T20:36:27.359Z,119.72
2022-12-23T20:38:56.637Z,121.22
2022-12-23T20:41:27.332Z,129.07
2022-12-23T20:46:44.198Z,100.70
2022-12-23T20:49:12.626Z,95.22
2022-12-23T20:51:41.361Z,109.25
2022-12-23T20:54:09.764Z,136.13
2022-12-23T20:56:38.089Z,133.43
2022-12-23T20:59:06.201Z,171.57
2022-12-23T21:01:38.421Z,179.63
2022-12-23T21:04:08.943Z,172.25
2022-12-23T21:06:37.782Z,160.77
2022-12-23T21:09:07.870Z,144.67
2022-12-23T21:11:39.595Z,155.07
2022-12-23T21:14:08.109Z,154.48
2022-12-23T21:16:38.465Z,167.88
2022-12-23T21:19:09.074Z,152.80
2022-12-23T21:21:37.299Z,159.03
2022-12-23T21:24:05.643Z,157.00
2022-12-23T21:26:35.567Z,151.82
2022-12-23T21:29:05.691Z,138.10
2022-12-23T21:31:36.676Z,164.57
2022-12-23T21:34:05.477Z,187.67
2022-12-23T21:36:37.651Z,171.63
2022-12-23T21:39:07.805Z,147.23
2022-12-23T21:41:38.592Z,147.38
2022-12-23T21:44:06.330Z,148.30
2022-12-23T21:46:34.959Z,160.83
2022-12-23T21:49:03.117Z,167.43
2022-12-23T21:51:41.969Z,156.98
2022-12-23T21:54:11.792Z,153.63
2022-12-23T21:56:40.665Z,172.30
2022-12-23T21:59:12.871Z,187.30
2022-12-23T22:01:42.830Z,178.13
2022-12-23T22:04:10.821Z,186.50
2022-12-23T22:06:44.103Z,169.20
2022-12-23T22:09:21.117Z,170.55
2022-12-23T22:11:49.712Z,170.83
2022-12-23T22:14:19.834Z,171.82
2022-12-23T22:16:48.246Z,176.43
2022-12-23T22:19:16.507Z,167.82
2022-12-23T22:21:45.893Z,163.10
2022-12-23T22:24:13.717Z,178.53
2022-12-23T22:26:42.323Z,181.15
2022-12-23T22:29:11.579Z,176.00
2022-12-23T22:31:49.078Z,175.88
2022-12-23T22:34:19.862Z,167.65
2022-12-23T22:36:49.255Z,175.77
2022-12-23T22:39:20.958Z,168.23
2022-12-23T22:41:53.001Z,181.10
2022-12-23T22:44:21.992Z,176.65
2022-12-23T22:46:50.532Z,173.73
2022-12-23T22:49:18.957Z,172.20
2022-12-23T22:51:47.214Z,175.55
2022-12-23T22:54:15.073Z,149.88
2022-12-23T22:56:43.672Z,157.68
2022-12-23T22:59:23.042Z,146.07
2022-12-23T23:01:52.773Z,150.23
2022-12-23T23:04:23.680Z,145.13
2022-12-23T23:06:51.926Z,140.20
2022-12-23T23:09:21.795Z,131.55
2022-12-23T23:11:51.909Z,128.30
2022-12-23T23:14:20.534Z,132.73
2022-12-23T23:16:49.120Z,143.68
2022-12-23T23:19:20.749Z,147.13
2022-12-23T23:21:49.414Z,170.15
2022-12-23T23:24:17.153Z,174.05
2022-12-23T23:26:45.381Z,186.60
2022-12-23T23:29:13.384Z,168.45
2022-12-23T23:31:43.275Z,162.10
2022-12-23T23:34:12.903Z,151.25
2022-12-23T23:36:41.308Z,157.65
2022-12-23T23:39:09.280Z,152.33
2022-12-23T23:41:37.459Z,154.45
2022-12-23T23:44:05.466Z,149.75
2022-12-23T23:46:34.801Z,169.52
2022-12-23T23:49:02.671Z,159.43
2022-12-23T23:51:34.489Z,168.87
2022-12-23T23:54:37.882Z,171.15
2022-12-23T23:57:06.089Z,168.00
2022-12-23T23:59:33.786Z,153.52
